Terminal Aerodrome Forecast
Issued by NWS

Home | Current Version | Previous Version | Graphics & Text | Print | Product List | Glossary On
Versions: 1 2 3 4 5 6 7 8 9 10 11 12 13 14 15 16 17 18 19 20 21 22 23 24 25 26 27 28 29 30 31 32
000
FTUS43 KLOT 262109 AAA
TAFDPA
TAF AMD
KDPA 262109Z 2621/2718 05014KT P6SM BKN020
     FM262300 04012KT P6SM BKN025 OVC050
     FM271500 07015G21KT P6SM SCT025 BKN040=

USA.gov is the U.S. government's official web portal to all federal, state and local government web resources and services.